sensor_id;sensor_type;location;lat;lon;timestamp;P1;durP1;ratioP1;P2;durP2;ratioP2
78752;SDS011;68072;51.688;7.842;2023-06-24T00:00:33;8.88;;;6.35;;
78752;SDS011;68072;51.688;7.842;2023-06-24T00:02:59;8.60;;;6.47;;
78752;SDS011;68072;51.688;7.842;2023-06-24T00:05:27;9.05;;;7.35;;
78752;SDS011;68072;51.688;7.842;2023-06-24T00:07:52;9.85;;;6.55;;
78752;SDS011;68072;51.688;7.842;2023-06-24T00:10:21;11.02;;;7.15;;
78752;SDS011;68072;51.688;7.842;2023-06-24T00:12:47;12.15;;;6.72;;
78752;SDS011;68072;51.688;7.842;2023-06-24T00:15:12;10.70;;;7.20;;
78752;SDS011;68072;51.688;7.842;2023-06-24T00:17:38;9.48;;;6.72;;
78752;SDS011;68072;51.688;7.842;2023-06-24T00:20:04;8.82;;;6.95;;
78752;SDS011;68072;51.688;7.842;2023-06-24T00:22:32;12.02;;;7.38;;
78752;SDS011;68072;51.688;7.842;2023-06-24T00:24:57;11.82;;;7.82;;
78752;SDS011;68072;51.688;7.842;2023-06-24T00:27:23;9.43;;;6.75;;
78752;SDS011;68072;51.688;7.842;2023-06-24T00:29:49;10.10;;;7.32;;
78752;SDS011;68072;51.688;7.842;2023-06-24T00:32:16;9.68;;;6.72;;
78752;SDS011;68072;51.688;7.842;2023-06-24T00:34:42;8.85;;;6.95;;
78752;SDS011;68072;51.688;7.842;2023-06-24T00:37:08;9.07;;;6.90;;
78752;SDS011;68072;51.688;7.842;2023-06-24T00:39:34;10.77;;;7.07;;
78752;SDS011;68072;51.688;7.842;2023-06-24T00:41:59;8.52;;;6.85;;
78752;SDS011;68072;51.688;7.842;2023-06-24T00:44:25;11.90;;;7.40;;
78752;SDS011;68072;51.688;7.842;2023-06-24T00:46:50;8.90;;;7.43;;
78752;SDS011;68072;51.688;7.842;2023-06-24T00:49:16;10.98;;;6.93;;
78752;SDS011;68072;51.688;7.842;2023-06-24T00:51:41;10.30;;;7.30;;
78752;SDS011;68072;51.688;7.842;2023-06-24T00:54:18;10.52;;;7.43;;
78752;SDS011;68072;51.688;7.842;2023-06-24T00:56:43;11.80;;;7.63;;
78752;SDS011;68072;51.688;7.842;2023-06-24T00:59:10;10.23;;;7.68;;
78752;SDS011;68072;51.688;7.842;2023-06-24T01:01:37;11.88;;;7.60;;
78752;SDS011;68072;51.688;7.842;2023-06-24T01:04:04;11.10;;;8.57;;
78752;SDS011;68072;51.688;7.842;2023-06-24T01:08:58;11.55;;;7.95;;
78752;SDS011;68072;51.688;7.842;2023-06-24T01:11:25;10.13;;;7.60;;
78752;SDS011;68072;51.688;7.842;2023-06-24T01:16:21;11.23;;;7.32;;
78752;SDS011;68072;51.688;7.842;2023-06-24T01:18:54;13.18;;;8.70;;
78752;SDS011;68072;51.688;7.842;2023-06-24T01:24:28;12.48;;;8.18;;
78752;SDS011;68072;51.688;7.842;2023-06-24T01:33:05;13.60;;;8.63;;
78752;SDS011;68072;51.688;7.842;2023-06-24T01:35:16;11.98;;;8.50;;
78752;SDS011;68072;51.688;7.842;2023-06-24T01:37:50;13.38;;;8.95;;
78752;SDS011;68072;51.688;7.842;2023-06-24T01:42:50;13.02;;;8.75;;
78752;SDS011;68072;51.688;7.842;2023-06-24T01:45:19;12.00;;;8.88;;
78752;SDS011;68072;51.688;7.842;2023-06-24T01:47:48;13.75;;;8.15;;
78752;SDS011;68072;51.688;7.842;2023-06-24T01:50:14;11.45;;;8.13;;
78752;SDS011;68072;51.688;7.842;2023-06-24T01:52:42;13.18;;;7.72;;
78752;SDS011;68072;51.688;7.842;2023-06-24T01:55:09;10.48;;;7.45;;
78752;SDS011;68072;51.688;7.842;2023-06-24T01:57:38;14.20;;;7.88;;
78752;SDS011;68072;51.688;7.842;2023-06-24T02:00:05;13.15;;;8.00;;
78752;SDS011;68072;51.688;7.842;2023-06-24T02:02:33;13.13;;;8.13;;
78752;SDS011;68072;51.688;7.842;2023-06-24T02:04:59;12.80;;;7.88;;
78752;SDS011;68072;51.688;7.842;2023-06-24T02:07:26;12.70;;;8.65;;
78752;SDS011;68072;51.688;7.842;2023-06-24T02:09:54;15.93;;;9.20;;
78752;SDS011;68072;51.688;7.842;2023-06-24T02:12:20;16.85;;;8.82;;
78752;SDS011;68072;51.688;7.842;2023-06-24T02:14:46;11.55;;;8.63;;
78752;SDS011;68072;51.688;7.842;2023-06-24T02:17:12;12.57;;;9.07;;
78752;SDS011;68072;51.688;7.842;2023-06-24T02:19:38;12.80;;;8.45;;
78752;SDS011;68072;51.688;7.842;2023-06-24T02:22:04;12.68;;;8.57;;
78752;SDS011;68072;51.688;7.842;2023-06-24T02:24:34;13.18;;;8.60;;
78752;SDS011;68072;51.688;7.842;2023-06-24T02:26:59;11.52;;;8.38;;
78752;SDS011;68072;51.688;7.842;2023-06-24T02:29:26;13.73;;;9.27;;
78752;SDS011;68072;51.688;7.842;2023-06-24T02:31:52;12.82;;;8.27;;
78752;SDS011;68072;51.688;7.842;2023-06-24T02:36:44;12.13;;;8.57;;
78752;SDS011;68072;51.688;7.842;2023-06-24T02:39:09;14.45;;;9.43;;
78752;SDS011;68072;51.688;7.842;2023-06-24T02:41:34;18.15;;;10.30;;
78752;SDS011;68072;51.688;7.842;2023-06-24T02:44:01;13.55;;;9.02;;
78752;SDS011;68072;51.688;7.842;2023-06-24T02:46:26;17.48;;;9.70;;
78752;SDS011;68072;51.688;7.842;2023-06-24T02:48:54;15.85;;;10.27;;
78752;SDS011;68072;51.688;7.842;2023-06-24T02:51:21;17.02;;;9.95;;
78752;SDS011;68072;51.688;7.842;2023-06-24T02:53:46;14.05;;;8.57;;
78752;SDS011;68072;51.688;7.842;2023-06-24T02:56:13;19.38;;;9.93;;
78752;SDS011;68072;51.688;7.842;2023-06-24T02:58:38;16.33;;;9.82;;
78752;SDS011;68072;51.688;7.842;2023-06-24T03:03:33;15.40;;;9.68;;
78752;SDS011;68072;51.688;7.842;2023-06-24T03:05:59;14.70;;;9.80;;
78752;SDS011;68072;51.688;7.842;2023-06-24T03:08:27;14.93;;;9.50;;
78752;SDS011;68072;51.688;7.842;2023-06-24T03:10:56;17.00;;;9.95;;
78752;SDS011;68072;51.688;7.842;2023-06-24T03:13:22;14.38;;;9.43;;
78752;SDS011;68072;51.688;7.842;2023-06-24T03:18:13;13.67;;;8.80;;
78752;SDS011;68072;51.688;7.842;2023-06-24T03:20:38;17.33;;;10.02;;
78752;SDS011;68072;51.688;7.842;2023-06-24T03:23:07;14.82;;;10.27;;
78752;SDS011;68072;51.688;7.842;2023-06-24T03:25:33;15.52;;;10.10;;
78752;SDS011;68072;51.688;7.842;2023-06-24T03:27:59;17.15;;;10.10;;
78752;SDS011;68072;51.688;7.842;2023-06-24T03:30:34;18.25;;;9.15;;
78752;SDS011;68072;51.688;7.842;2023-06-24T03:33:00;14.27;;;8.90;;
78752;SDS011;68072;51.688;7.842;2023-06-24T03:35:26;13.85;;;9.10;;
78752;SDS011;68072;51.688;7.842;2023-06-24T03:37:51;18.25;;;9.45;;
78752;SDS011;68072;51.688;7.842;2023-06-24T03:40:16;14.90;;;9.73;;
78752;SDS011;68072;51.688;7.842;2023-06-24T03:42:42;13.95;;;9.80;;
78752;SDS011;68072;51.688;7.842;2023-06-24T03:45:07;18.55;;;11.60;;
78752;SDS011;68072;51.688;7.842;2023-06-24T03:47:33;19.90;;;11.48;;
78752;SDS011;68072;51.688;7.842;2023-06-24T03:49:58;18.23;;;10.10;;
78752;SDS011;68072;51.688;7.842;2023-06-24T03:52:24;17.83;;;9.82;;
78752;SDS011;68072;51.688;7.842;2023-06-24T03:57:15;18.85;;;10.40;;
78752;SDS011;68072;51.688;7.842;2023-06-24T03:59:41;19.00;;;11.23;;
78752;SDS011;68072;51.688;7.842;2023-06-24T04:02:06;18.88;;;11.25;;
78752;SDS011;68072;51.688;7.842;2023-06-24T04:04:33;21.10;;;11.43;;
78752;SDS011;68072;51.688;7.842;2023-06-24T04:06:59;17.77;;;11.32;;
78752;SDS011;68072;51.688;7.842;2023-06-24T04:09:24;20.95;;;12.02;;
78752;SDS011;68072;51.688;7.842;2023-06-24T04:11:49;21.50;;;11.70;;
78752;SDS011;68072;51.688;7.842;2023-06-24T04:14:15;18.98;;;11.23;;
78752;SDS011;68072;51.688;7.842;2023-06-24T04:16:40;20.90;;;11.55;;
78752;SDS011;68072;51.688;7.842;2023-06-24T04:19:06;17.95;;;11.23;;
78752;SDS011;68072;51.688;7.842;2023-06-24T04:21:31;18.35;;;11.13;;
78752;SDS011;68072;51.688;7.842;2023-06-24T04:23:56;20.17;;;11.25;;
78752;SDS011;68072;51.688;7.842;2023-06-24T04:26:22;20.48;;;11.05;;
78752;SDS011;68072;51.688;7.842;2023-06-24T04:28:47;20.92;;;11.55;;
78752;SDS011;68072;51.688;7.842;2023-06-24T04:31:12;16.75;;;11.02;;
78752;SDS011;68072;51.688;7.842;2023-06-24T04:33:38;17.60;;;10.43;;
78752;SDS011;68072;51.688;7.842;2023-06-24T04:36:03;19.52;;;10.63;;
78752;SDS011;68072;51.688;7.842;2023-06-24T04:38:29;20.80;;;10.13;;
78752;SDS011;68072;51.688;7.842;2023-06-24T04:40:54;16.17;;;10.43;;
78752;SDS011;68072;51.688;7.842;2023-06-24T04:43:20;18.90;;;10.73;;
78752;SDS011;68072;51.688;7.842;2023-06-24T04:45:45;14.73;;;9.93;;
78752;SDS011;68072;51.688;7.842;2023-06-24T04:48:10;15.48;;;9.77;;
78752;SDS011;68072;51.688;7.842;2023-06-24T04:50:36;16.58;;;10.00;;
78752;SDS011;68072;51.688;7.842;2023-06-24T04:53:01;16.75;;;9.73;;
78752;SDS011;68072;51.688;7.842;2023-06-24T04:55:27;13.93;;;9.18;;
78752;SDS011;68072;51.688;7.842;2023-06-24T04:57:55;14.30;;;9.93;;
78752;SDS011;68072;51.688;7.842;2023-06-24T05:00:20;13.30;;;8.85;;
78752;SDS011;68072;51.688;7.842;2023-06-24T05:02:48;15.73;;;8.60;;
78752;SDS011;68072;51.688;7.842;2023-06-24T05:05:13;16.40;;;8.77;;
78752;SDS011;68072;51.688;7.842;2023-06-24T05:07:39;15.85;;;9.07;;
78752;SDS011;68072;51.688;7.842;2023-06-24T05:10:05;15.20;;;10.00;;
78752;SDS011;68072;51.688;7.842;2023-06-24T05:12:30;16.55;;;9.32;;
78752;SDS011;68072;51.688;7.842;2023-06-24T05:14:56;15.77;;;9.48;;
78752;SDS011;68072;51.688;7.842;2023-06-24T05:17:21;15.95;;;9.57;;
78752;SDS011;68072;51.688;7.842;2023-06-24T05:19:46;16.25;;;8.98;;
78752;SDS011;68072;51.688;7.842;2023-06-24T05:22:12;15.38;;;9.55;;
78752;SDS011;68072;51.688;7.842;2023-06-24T05:24:37;12.60;;;8.93;;
78752;SDS011;68072;51.688;7.842;2023-06-24T05:27:03;14.88;;;8.68;;
78752;SDS011;68072;51.688;7.842;2023-06-24T05:29:30;13.25;;;8.45;;
78752;SDS011;68072;51.688;7.842;2023-06-24T05:31:56;12.88;;;9.07;;
78752;SDS011;68072;51.688;7.842;2023-06-24T05:34:21;14.40;;;8.93;;
78752;SDS011;68072;51.688;7.842;2023-06-24T05:36:47;16.08;;;9.85;;
78752;SDS011;68072;51.688;7.842;2023-06-24T05:39:12;16.02;;;9.07;;
78752;SDS011;68072;51.688;7.842;2023-06-24T05:41:38;15.63;;;8.20;;
78752;SDS011;68072;51.688;7.842;2023-06-24T05:44:06;15.77;;;9.40;;
78752;SDS011;68072;51.688;7.842;2023-06-24T05:46:32;16.58;;;9.00;;
78752;SDS011;68072;51.688;7.842;2023-06-24T05:48:58;13.93;;;8.77;;
78752;SDS011;68072;51.688;7.842;2023-06-24T05:51:23;11.85;;;7.95;;
78752;SDS011;68072;51.688;7.842;2023-06-24T05:53:49;12.60;;;8.50;;
78752;SDS011;68072;51.688;7.842;2023-06-24T05:56:14;13.77;;;8.23;;
78752;SDS011;68072;51.688;7.842;2023-06-24T06:01:06;11.90;;;8.32;;
78752;SDS011;68072;51.688;7.842;2023-06-24T06:03:32;15.32;;;8.30;;
78752;SDS011;68072;51.688;7.842;2023-06-24T06:05:57;11.77;;;8.30;;
78752;SDS011;68072;51.688;7.842;2023-06-24T06:10:48;11.40;;;7.83;;
78752;SDS011;68072;51.688;7.842;2023-06-24T06:13:13;12.07;;;7.60;;
78752;SDS011;68072;51.688;7.842;2023-06-24T06:15:38;15.90;;;8.30;;
78752;SDS011;68072;51.688;7.842;2023-06-24T06:18:04;13.07;;;8.38;;
78752;SDS011;68072;51.688;7.842;2023-06-24T06:20:29;11.75;;;7.43;;
78752;SDS011;68072;51.688;7.842;2023-06-24T06:22:55;12.27;;;7.13;;
78752;SDS011;68072;51.688;7.842;2023-06-24T06:25:20;13.88;;;7.15;;
78752;SDS011;68072;51.688;7.842;2023-06-24T06:27:46;12.45;;;7.43;;
78752;SDS011;68072;51.688;7.842;2023-06-24T06:30:11;10.77;;;7.07;;
78752;SDS011;68072;51.688;7.842;2023-06-24T06:32:38;11.55;;;6.90;;
78752;SDS011;68072;51.688;7.842;2023-06-24T06:35:04;11.38;;;7.50;;
78752;SDS011;68072;51.688;7.842;2023-06-24T06:39:55;13.53;;;6.77;;
78752;SDS011;68072;51.688;7.842;2023-06-24T06:42:20;9.82;;;6.40;;
78752;SDS011;68072;51.688;7.842;2023-06-24T06:47:11;8.83;;;5.77;;
78752;SDS011;68072;51.688;7.842;2023-06-24T06:49:36;8.25;;;6.20;;
78752;SDS011;68072;51.688;7.842;2023-06-24T06:54:27;9.27;;;5.68;;
78752;SDS011;68072;51.688;7.842;2023-06-24T06:59:18;9.27;;;4.90;;
78752;SDS011;68072;51.688;7.842;2023-06-24T07:01:44;7.63;;;6.00;;
78752;SDS011;68072;51.688;7.842;2023-06-24T07:06:34;8.53;;;5.70;;
78752;SDS011;68072;51.688;7.842;2023-06-24T07:09:00;6.50;;;4.40;;
78752;SDS011;68072;51.688;7.842;2023-06-24T07:11:25;8.43;;;5.40;;
78752;SDS011;68072;51.688;7.842;2023-06-24T07:13:51;6.97;;;4.95;;
78752;SDS011;68072;51.688;7.842;2023-06-24T07:16:17;5.57;;;4.82;;
78752;SDS011;68072;51.688;7.842;2023-06-24T07:18:43;7.72;;;4.90;;
78752;SDS011;68072;51.688;7.842;2023-06-24T07:21:08;9.15;;;4.38;;
78752;SDS011;68072;51.688;7.842;2023-06-24T07:23:33;5.65;;;4.72;;
78752;SDS011;68072;51.688;7.842;2023-06-24T07:25:59;7.95;;;5.55;;
78752;SDS011;68072;51.688;7.842;2023-06-24T07:28:24;8.70;;;4.60;;
78752;SDS011;68072;51.688;7.842;2023-06-24T07:30:50;9.10;;;5.40;;
78752;SDS011;68072;51.688;7.842;2023-06-24T07:33:15;6.10;;;4.70;;
78752;SDS011;68072;51.688;7.842;2023-06-24T07:35:40;5.30;;;4.45;;
78752;SDS011;68072;51.688;7.842;2023-06-24T07:38:06;7.22;;;5.03;;
78752;SDS011;68072;51.688;7.842;2023-06-24T07:40:31;6.35;;;4.70;;
78752;SDS011;68072;51.688;7.842;2023-06-24T07:42:57;6.93;;;4.60;;
78752;SDS011;68072;51.688;7.842;2023-06-24T07:45:22;9.00;;;4.97;;
78752;SDS011;68072;51.688;7.842;2023-06-24T07:47:48;9.68;;;5.05;;
78752;SDS011;68072;51.688;7.842;2023-06-24T07:50:14;5.10;;;4.25;;
78752;SDS011;68072;51.688;7.842;2023-06-24T07:52:39;7.78;;;5.38;;
78752;SDS011;68072;51.688;7.842;2023-06-24T07:55:05;8.13;;;4.70;;
78752;SDS011;68072;51.688;7.842;2023-06-24T07:57:31;5.75;;;4.65;;
78752;SDS011;68072;51.688;7.842;2023-06-24T07:59:56;7.18;;;5.07;;
78752;SDS011;68072;51.688;7.842;2023-06-24T08:02:21;6.68;;;4.32;;
78752;SDS011;68072;51.688;7.842;2023-06-24T08:04:49;6.72;;;5.10;;
78752;SDS011;68072;51.688;7.842;2023-06-24T08:07:14;6.30;;;4.65;;
78752;SDS011;68072;51.688;7.842;2023-06-24T08:09:40;6.10;;;5.00;;
78752;SDS011;68072;51.688;7.842;2023-06-24T08:12:05;5.93;;;4.63;;
78752;SDS011;68072;51.688;7.842;2023-06-24T08:14:31;7.03;;;4.97;;
78752;SDS011;68072;51.688;7.842;2023-06-24T08:16:56;6.60;;;4.95;;
78752;SDS011;68072;51.688;7.842;2023-06-24T08:19:22;7.32;;;4.72;;
78752;SDS011;68072;51.688;7.842;2023-06-24T08:21:48;6.80;;;5.70;;
78752;SDS011;68072;51.688;7.842;2023-06-24T08:24:13;7.78;;;5.28;;
78752;SDS011;68072;51.688;7.842;2023-06-24T08:29:42;6.40;;;5.00;;
78752;SDS011;68072;51.688;7.842;2023-06-24T08:32:07;6.28;;;4.82;;
78752;SDS011;68072;51.688;7.842;2023-06-24T08:34:33;7.22;;;5.07;;
78752;SDS011;68072;51.688;7.842;2023-06-24T08:36:58;7.57;;;5.15;;
78752;SDS011;68072;51.688;7.842;2023-06-24T08:39:24;5.80;;;4.78;;
78752;SDS011;68072;51.688;7.842;2023-06-24T08:41:49;6.75;;;4.60;;
78752;SDS011;68072;51.688;7.842;2023-06-24T08:44:15;6.50;;;4.32;;
78752;SDS011;68072;51.688;7.842;2023-06-24T08:46:41;8.40;;;5.57;;
78752;SDS011;68072;51.688;7.842;2023-06-24T08:51:49;6.45;;;4.47;;
78752;SDS011;68072;51.688;7.842;2023-06-24T08:54:18;8.27;;;4.80;;
78752;SDS011;68072;51.688;7.842;2023-06-24T08:56:44;6.93;;;4.80;;
78752;SDS011;68072;51.688;7.842;2023-06-24T08:59:10;6.88;;;5.10;;
78752;SDS011;68072;51.688;7.842;2023-06-24T09:01:35;8.48;;;5.25;;
78752;SDS011;68072;51.688;7.842;2023-06-24T09:04:01;9.55;;;4.97;;
78752;SDS011;68072;51.688;7.842;2023-06-24T09:06:26;6.38;;;5.00;;
78752;SDS011;68072;51.688;7.842;2023-06-24T09:08:52;11.60;;;5.80;;
78752;SDS011;68072;51.688;7.842;2023-06-24T09:11:22;7.65;;;4.88;;
78752;SDS011;68072;51.688;7.842;2023-06-24T09:13:58;9.60;;;5.00;;
78752;SDS011;68072;51.688;7.842;2023-06-24T09:16:24;6.20;;;4.40;;
78752;SDS011;68072;51.688;7.842;2023-06-24T09:18:51;9.23;;;5.60;;
78752;SDS011;68072;51.688;7.842;2023-06-24T09:21:21;9.02;;;5.10;;
78752;SDS011;68072;51.688;7.842;2023-06-24T09:23:54;7.53;;;5.28;;
78752;SDS011;68072;51.688;7.842;2023-06-24T09:26:23;12.63;;;5.25;;
78752;SDS011;68072;51.688;7.842;2023-06-24T09:28:49;6.82;;;5.18;;
78752;SDS011;68072;51.688;7.842;2023-06-24T09:31:15;6.82;;;4.70;;
78752;SDS011;68072;51.688;7.842;2023-06-24T09:33:40;6.30;;;4.65;;
78752;SDS011;68072;51.688;7.842;2023-06-24T09:36:06;13.77;;;5.68;;
78752;SDS011;68072;51.688;7.842;2023-06-24T09:38:35;7.85;;;5.95;;
78752;SDS011;68072;51.688;7.842;2023-06-24T09:41:02;8.52;;;6.10;;
78752;SDS011;68072;51.688;7.842;2023-06-24T09:43:34;9.38;;;6.07;;
78752;SDS011;68072;51.688;7.842;2023-06-24T09:46:01;8.43;;;6.10;;
78752;SDS011;68072;51.688;7.842;2023-06-24T09:48:27;8.65;;;6.35;;
78752;SDS011;68072;51.688;7.842;2023-06-24T09:50:53;8.18;;;5.75;;
78752;SDS011;68072;51.688;7.842;2023-06-24T09:53:20;7.30;;;5.45;;
78752;SDS011;68072;51.688;7.842;2023-06-24T09:55:45;8.30;;;5.85;;
78752;SDS011;68072;51.688;7.842;2023-06-24T09:58:12;9.00;;;5.65;;
78752;SDS011;68072;51.688;7.842;2023-06-24T10:00:38;7.15;;;4.93;;
78752;SDS011;68072;51.688;7.842;2023-06-24T10:03:03;8.02;;;5.80;;
78752;SDS011;68072;51.688;7.842;2023-06-24T10:05:29;9.18;;;5.10;;
78752;SDS011;68072;51.688;7.842;2023-06-24T10:07:54;8.68;;;6.03;;
78752;SDS011;68072;51.688;7.842;2023-06-24T10:10:20;7.05;;;5.85;;
78752;SDS011;68072;51.688;7.842;2023-06-24T10:12:45;11.25;;;6.60;;
78752;SDS011;68072;51.688;7.842;2023-06-24T10:15:11;7.57;;;5.78;;
78752;SDS011;68072;51.688;7.842;2023-06-24T10:17:36;7.47;;;6.05;;
78752;SDS011;68072;51.688;7.842;2023-06-24T10:20:05;7.60;;;5.80;;
78752;SDS011;68072;51.688;7.842;2023-06-24T10:22:31;10.88;;;5.88;;
78752;SDS011;68072;51.688;7.842;2023-06-24T10:24:59;6.03;;;5.25;;
78752;SDS011;68072;51.688;7.842;2023-06-24T10:27:25;6.55;;;5.72;;
78752;SDS011;68072;51.688;7.842;2023-06-24T10:29:52;7.82;;;5.75;;
78752;SDS011;68072;51.688;7.842;2023-06-24T10:32:21;6.53;;;5.15;;
78752;SDS011;68072;51.688;7.842;2023-06-24T10:34:53;11.50;;;5.22;;
78752;SDS011;68072;51.688;7.842;2023-06-24T10:37:20;6.60;;;4.85;;
78752;SDS011;68072;51.688;7.842;2023-06-24T10:45:17;6.53;;;4.80;;
78752;SDS011;68072;51.688;7.842;2023-06-24T10:50:09;10.40;;;5.10;;
78752;SDS011;68072;51.688;7.842;2023-06-24T10:52:40;5.57;;;4.88;;
78752;SDS011;68072;51.688;7.842;2023-06-24T10:55:07;6.53;;;5.22;;
78752;SDS011;68072;51.688;7.842;2023-06-24T10:57:32;7.65;;;4.97;;
78752;SDS011;68072;51.688;7.842;2023-06-24T10:59:58;5.97;;;5.25;;
78752;SDS011;68072;51.688;7.842;2023-06-24T11:02:24;9.32;;;6.00;;
78752;SDS011;68072;51.688;7.842;2023-06-24T11:04:57;8.55;;;6.00;;
78752;SDS011;68072;51.688;7.842;2023-06-24T11:07:25;6.85;;;4.93;;
78752;SDS011;68072;51.688;7.842;2023-06-24T11:09:54;5.57;;;4.28;;
78752;SDS011;68072;51.688;7.842;2023-06-24T11:12:24;4.50;;;4.10;;
78752;SDS011;68072;51.688;7.842;2023-06-24T11:14:51;6.30;;;4.97;;
78752;SDS011;68072;51.688;7.842;2023-06-24T11:17:19;5.82;;;4.60;;
78752;SDS011;68072;51.688;7.842;2023-06-24T11:19:44;10.93;;;6.03;;
78752;SDS011;68072;51.688;7.842;2023-06-24T11:22:10;6.07;;;4.65;;
78752;SDS011;68072;51.688;7.842;2023-06-24T11:24:35;6.68;;;4.90;;
78752;SDS011;68072;51.688;7.842;2023-06-24T11:27:01;5.05;;;4.22;;
78752;SDS011;68072;51.688;7.842;2023-06-24T11:29:30;6.40;;;3.63;;
78752;SDS011;68072;51.688;7.842;2023-06-24T11:31:57;6.35;;;4.00;;
78752;SDS011;68072;51.688;7.842;2023-06-24T11:34:22;4.10;;;3.70;;
78752;SDS011;68072;51.688;7.842;2023-06-24T11:36:49;4.68;;;4.10;;
78752;SDS011;68072;51.688;7.842;2023-06-24T11:39:24;8.60;;;4.38;;
78752;SDS011;68072;51.688;7.842;2023-06-24T11:41:52;12.75;;;4.95;;
78752;SDS011;68072;51.688;7.842;2023-06-24T11:44:18;6.85;;;5.18;;
78752;SDS011;68072;51.688;7.842;2023-06-24T11:46:47;5.55;;;4.40;;
78752;SDS011;68072;51.688;7.842;2023-06-24T11:49:12;7.65;;;4.78;;
78752;SDS011;68072;51.688;7.842;2023-06-24T11:51:45;6.10;;;3.60;;
78752;SDS011;68072;51.688;7.842;2023-06-24T11:54:18;6.43;;;4.03;;
78752;SDS011;68072;51.688;7.842;2023-06-24T11:56:49;8.68;;;4.25;;
78752;SDS011;68072;51.688;7.842;2023-06-24T11:59:21;5.95;;;3.95;;
78752;SDS011;68072;51.688;7.842;2023-06-24T12:01:55;5.57;;;4.22;;
78752;SDS011;68072;51.688;7.842;2023-06-24T12:04:22;4.38;;;3.72;;
78752;SDS011;68072;51.688;7.842;2023-06-24T12:06:53;3.88;;;3.50;;
78752;SDS011;68072;51.688;7.842;2023-06-24T12:09:18;5.07;;;3.92;;
78752;SDS011;68072;51.688;7.842;2023-06-24T12:11:44;5.13;;;4.13;;
78752;SDS011;68072;51.688;7.842;2023-06-24T12:14:10;4.38;;;3.95;;
78752;SDS011;68072;51.688;7.842;2023-06-24T12:16:35;5.45;;;4.15;;
78752;SDS011;68072;51.688;7.842;2023-06-24T12:19:00;7.22;;;3.60;;
78752;SDS011;68072;51.688;7.842;2023-06-24T12:21:26;4.20;;;3.78;;
78752;SDS011;68072;51.688;7.842;2023-06-24T12:23:51;4.25;;;3.40;;
78752;SDS011;68072;51.688;7.842;2023-06-24T12:26:17;4.05;;;3.28;;
78752;SDS011;68072;51.688;7.842;2023-06-24T12:28:42;5.90;;;3.70;;
78752;SDS011;68072;51.688;7.842;2023-06-24T12:31:07;4.50;;;3.55;;
78752;SDS011;68072;51.688;7.842;2023-06-24T12:33:33;4.47;;;3.70;;
78752;SDS011;68072;51.688;7.842;2023-06-24T12:35:58;4.95;;;3.88;;
78752;SDS011;68072;51.688;7.842;2023-06-24T12:38:24;5.18;;;3.85;;
78752;SDS011;68072;51.688;7.842;2023-06-24T12:40:49;5.40;;;3.65;;
78752;SDS011;68072;51.688;7.842;2023-06-24T12:43:15;4.40;;;4.00;;
78752;SDS011;68072;51.688;7.842;2023-06-24T12:45:41;5.00;;;4.47;;
78752;SDS011;68072;51.688;7.842;2023-06-24T12:48:09;6.38;;;4.32;;
78752;SDS011;68072;51.688;7.842;2023-06-24T12:50:35;5.20;;;4.05;;
78752;SDS011;68072;51.688;7.842;2023-06-24T12:53:01;5.60;;;3.80;;
78752;SDS011;68072;51.688;7.842;2023-06-24T12:55:27;4.18;;;3.78;;
78752;SDS011;68072;51.688;7.842;2023-06-24T12:57:53;5.72;;;3.80;;
78752;SDS011;68072;51.688;7.842;2023-06-24T13:00:22;5.25;;;3.45;;
78752;SDS011;68072;51.688;7.842;2023-06-24T13:02:48;3.50;;;3.05;;
78752;SDS011;68072;51.688;7.842;2023-06-24T13:05:14;5.03;;;3.67;;
78752;SDS011;68072;51.688;7.842;2023-06-24T13:07:39;4.53;;;3.60;;
78752;SDS011;68072;51.688;7.842;2023-06-24T13:10:05;5.25;;;3.10;;
78752;SDS011;68072;51.688;7.842;2023-06-24T13:12:33;3.35;;;3.05;;
78752;SDS011;68072;51.688;7.842;2023-06-24T13:14:59;3.65;;;2.83;;
78752;SDS011;68072;51.688;7.842;2023-06-24T13:17:25;3.72;;;3.00;;
78752;SDS011;68072;51.688;7.842;2023-06-24T13:19:50;3.88;;;3.03;;
78752;SDS011;68072;51.688;7.842;2023-06-24T13:22:16;4.13;;;2.95;;
78752;SDS011;68072;51.688;7.842;2023-06-24T13:24:42;2.95;;;2.75;;
78752;SDS011;68072;51.688;7.842;2023-06-24T13:27:07;4.85;;;2.78;;
78752;SDS011;68072;51.688;7.842;2023-06-24T13:29:33;4.55;;;3.13;;
78752;SDS011;68072;51.688;7.842;2023-06-24T13:31:58;3.85;;;2.90;;
78752;SDS011;68072;51.688;7.842;2023-06-24T13:34:24;3.78;;;3.05;;
78752;SDS011;68072;51.688;7.842;2023-06-24T13:36:49;4.18;;;3.00;;
78752;SDS011;68072;51.688;7.842;2023-06-24T13:39:14;4.35;;;3.40;;
78752;SDS011;68072;51.688;7.842;2023-06-24T13:41:42;4.53;;;3.30;;
78752;SDS011;68072;51.688;7.842;2023-06-24T13:44:09;5.07;;;3.33;;
78752;SDS011;68072;51.688;7.842;2023-06-24T13:46:34;4.60;;;3.25;;
78752;SDS011;68072;51.688;7.842;2023-06-24T13:49:00;3.70;;;3.30;;
78752;SDS011;68072;51.688;7.842;2023-06-24T13:51:26;3.53;;;3.20;;
78752;SDS011;68072;51.688;7.842;2023-06-24T13:53:52;3.85;;;2.75;;
78752;SDS011;68072;51.688;7.842;2023-06-24T13:56:22;6.57;;;2.95;;
78752;SDS011;68072;51.688;7.842;2023-06-24T13:58:49;4.95;;;3.15;;
78752;SDS011;68072;51.688;7.842;2023-06-24T14:01:15;3.72;;;2.80;;
78752;SDS011;68072;51.688;7.842;2023-06-24T14:03:40;3.70;;;3.00;;
78752;SDS011;68072;51.688;7.842;2023-06-24T14:06:06;3.47;;;3.10;;
78752;SDS011;68072;51.688;7.842;2023-06-24T14:08:32;3.30;;;3.00;;
78752;SDS011;68072;51.688;7.842;2023-06-24T14:10:58;3.80;;;2.95;;
78752;SDS011;68072;51.688;7.842;2023-06-24T14:13:25;4.82;;;3.30;;
78752;SDS011;68072;51.688;7.842;2023-06-24T14:15:51;4.97;;;2.80;;
78752;SDS011;68072;51.688;7.842;2023-06-24T14:18:17;3.35;;;3.05;;
78752;SDS011;68072;51.688;7.842;2023-06-24T14:20:43;3.40;;;2.85;;
78752;SDS011;68072;51.688;7.842;2023-06-24T14:23:08;3.63;;;2.72;;
78752;SDS011;68072;51.688;7.842;2023-06-24T14:25:33;3.42;;;2.80;;
78752;SDS011;68072;51.688;7.842;2023-06-24T14:27:59;4.05;;;2.78;;
78752;SDS011;68072;51.688;7.842;2023-06-24T14:30:24;3.65;;;2.97;;
78752;SDS011;68072;51.688;7.842;2023-06-24T14:32:50;3.13;;;2.70;;
78752;SDS011;68072;51.688;7.842;2023-06-24T14:35:15;3.75;;;2.97;;
78752;SDS011;68072;51.688;7.842;2023-06-24T14:37:41;3.28;;;2.90;;
78752;SDS011;68072;51.688;7.842;2023-06-24T14:40:07;3.63;;;2.88;;
78752;SDS011;68072;51.688;7.842;2023-06-24T14:42:33;4.32;;;3.30;;
78752;SDS011;68072;51.688;7.842;2023-06-24T14:44:58;7.32;;;3.45;;
78752;SDS011;68072;51.688;7.842;2023-06-24T14:47:24;5.05;;;3.47;;
78752;SDS011;68072;51.688;7.842;2023-06-24T14:49:49;4.75;;;3.15;;
78752;SDS011;68072;51.688;7.842;2023-06-24T14:52:14;3.22;;;2.70;;
78752;SDS011;68072;51.688;7.842;2023-06-24T14:54:40;3.25;;;2.95;;
78752;SDS011;68072;51.688;7.842;2023-06-24T14:57:05;3.35;;;3.05;;
78752;SDS011;68072;51.688;7.842;2023-06-24T14:59:31;3.20;;;2.90;;
78752;SDS011;68072;51.688;7.842;2023-06-24T15:01:56;4.93;;;2.88;;
78752;SDS011;68072;51.688;7.842;2023-06-24T15:04:21;3.20;;;2.90;;
78752;SDS011;68072;51.688;7.842;2023-06-24T15:06:47;4.68;;;2.95;;
78752;SDS011;68072;51.688;7.842;2023-06-24T15:09:12;4.40;;;2.95;;
78752;SDS011;68072;51.688;7.842;2023-06-24T15:11:38;4.88;;;3.92;;
78752;SDS011;68072;51.688;7.842;2023-06-24T15:14:03;5.35;;;3.85;;
78752;SDS011;68072;51.688;7.842;2023-06-24T15:16:28;4.68;;;3.38;;
78752;SDS011;68072;51.688;7.842;2023-06-24T15:18:54;6.40;;;3.67;;
78752;SDS011;68072;51.688;7.842;2023-06-24T15:21:19;4.03;;;3.63;;
78752;SDS011;68072;51.688;7.842;2023-06-24T15:23:46;4.85;;;2.92;;
78752;SDS011;68072;51.688;7.842;2023-06-24T15:26:11;4.30;;;2.97;;
78752;SDS011;68072;51.688;7.842;2023-06-24T15:28:37;4.97;;;2.83;;
78752;SDS011;68072;51.688;7.842;2023-06-24T15:31:02;3.42;;;2.92;;